Latest Weather Observations for Wulungurru (Kintore)

IDD60801

Issued at 11:05 pm CST Friday 25 July 2014 (issued every 30 minutes, with the page automatically refreshed every 10 minutes)

About weather observations | Map of weather stations | Latest weather observations for NT | Other Formats
Station Details ID: 015664 Name: WALUNGURRU AIRPORT Lat: -23.27 Lon: 129.38 Height: 454.3 m
Data from the previous 72 hours. | See also: Recent months at Wulungurru (Kintore)
Date/Time
CST
Temp
°C
App
Temp
°C
Dew
Point
Rel
Hum
%
Delta-T
°C
Wind Press
QNH
hPa
Press
MSL
hPa
Rain
since 9 am
mm
Dir
 
Spd
km/h
Gust
km/h
Spd
kts
Gust
kts
25/11:00pm 14.5 7.8 -1.2 34 6.6 SSE 24 32 13 17 1023.6 - 0.0
25/10:30pm 14.7 8.0 -1.0 34 6.6 SSE 24 32 13 17 1023.5 - 0.0
25/10:00pm 15.0 8.4 -0.7 34 6.7 SSE 24 33 13 18 1023.2 - 0.0
25/09:30pm 13.8 8.5 -0.6 37 6.1 SSE 17 20 9 11 1023.1 - 0.0
25/09:00pm 13.9 8.7 -0.2 38 6.0 SSE 17 22 9 12 1022.8 1022.7 0.0
25/08:30pm 12.8 8.2 -0.8 39 5.7 S 13 15 7 8 1022.6 - 0.0
25/08:00pm 13.8 9.2 -1.0 36 6.2 SSE 13 17 7 9 1022.2 - 0.0
25/07:30pm 14.3 10.9 -0.9 35 6.4 SE 7 11 4 6 1021.8 - 0.0
25/07:00pm 16.0 11.4 -0.7 32 7.2 S 13 15 7 8 1021.5 - 0.0
25/06:30pm 18.1 13.1 -1.2 27 8.4 SSE 15 19 8 10 1021.3 - 0.0
25/06:00pm 20.0 14.9 -1.7 23 9.5 SE 15 19 8 10 1021.2 1021.0 0.0
25/05:30pm 20.8 16.0 -2.3 21 10.1 ESE 13 20 7 11 1021.0 - 0.0
25/05:00pm 21.2 16.3 -3.3 19 10.5 SSE 13 20 7 11 1020.8 - 0.0
25/04:30pm 21.4 16.2 -2.5 20 10.4 SSE 15 22 8 12 1020.8 - 0.0
25/04:00pm 21.8 17.1 -2.1 20 10.5 ESE 13 17 7 9 1020.8 - 0.0
25/03:30pm 21.1 16.5 -1.4 22 10.0 SSE 13 24 7 13 1021.0 - 0.0
25/03:00pm 20.8 16.1 -1.7 22 9.9 SSE 13 26 7 14 1021.0 1020.9 0.0
25/02:30pm 21.0 15.9 -2.1 21 10.1 SE 15 22 8 12 1021.3 - 0.0
25/02:00pm 20.8 15.8 -1.1 23 9.8 ESE 15 22 8 12 1021.8 - 0.0
25/01:30pm 19.8 14.6 -2.5 22 9.6 ESE 15 24 8 13 1022.2 - 0.0
25/01:00pm 19.7 14.3 -1.4 24 9.3 SE 17 24 9 13 1022.7 - 0.0
25/12:30pm 18.8 13.5 -0.6 27 8.6 ESE 17 22 9 12 1023.1 - 0.0
25/12:00pm 18.4 12.6 0.1 29 8.2 ESE 20 28 11 15 1023.3 1023.2 0.0
25/11:30am 17.6 11.1 0.3 31 7.7 SE 24 33 13 18 1023.6 - 0.0
25/11:00am 16.9 10.1 1.0 34 7.1 SE 26 35 14 19 1023.9 - 0.0
25/10:30am 15.6 7.6 0.6 36 6.6 SE 32 37 17 20 1023.8 - 0.0
25/10:00am 15.1 8.0 1.3 39 6.2 SE 28 35 15 19 1023.8 - 0.0
25/09:30am 13.6 6.9 1.6 44 5.3 SE 26 35 14 19 1023.6 - 0.0
25/09:00am 12.0 5.2 1.1 47 4.7 SE 26 35 14 19 1023.5 1023.3 0.0
25/08:30am 11.7 4.5 0.8 47 4.7 SE 28 39 15 21 1023.1 - 0.0
25/08:00am 10.9 3.7 0.9 50 4.3 SE 28 37 15 20 1022.7 - 0.0
25/07:30am 10.4 3.6 0.7 51 4.1 SE 26 35 14 19 1022.3 - 0.0
25/07:00am 10.4 3.6 1.0 52 4.0 SE 26 35 14 19 1022.1 - 0.0
25/06:30am 9.0 3.6 1.2 58 3.3 SSE 19 26 10 14 1021.9 - 0.0
25/06:00am 9.3 3.2 0.5 54 3.6 SSE 22 32 12 17 1021.8 1021.6 0.0
25/05:30am 9.2 3.6 0.9 56 3.5 SSE 20 28 11 15 1021.6 - 0.0
25/05:00am 8.6 2.9 0.6 57 3.3 S 20 24 11 13 1021.4 - 0.0
25/04:30am 8.5 3.3 0.0 55 3.5 S 17 22 9 12 1021.0 - 0.0
25/04:00am 9.2 3.6 0.1 53 3.7 SSE 19 24 10 13 1020.8 - 0.0
25/03:30am 8.6 3.4 -0.2 54 3.6 S 17 20 9 11 1021.0 - 0.0
25/03:00am 9.6 3.8 0.0 51 3.9 S 20 24 11 13 1020.6 1020.5 0.0
 
Date/Time
CST
Temp
°C
App
Temp
°C
Dew
Point
Rel
Hum
%
Delta-T
°C
Wind Press
QNH
hPa
Press
MSL
hPa
Rain
since 9 am
mm
Dir
 
Spd
km/h
Gust
km/h
Spd
kts
Gust
kts
24/11:30pm 10.8 6.3 -0.3 46 4.6 SSE 13 15 7 8 1020.4 - 0.0
24/11:00pm 10.1 5.5 -0.7 47 4.4 SSE 13 15 7 8 1020.2 - 0.0
24/10:30pm 10.9 6.3 -0.9 44 4.8 SSE 13 15 7 8 1020.0 - 0.0
24/10:00pm 12.0 7.0 -1.2 40 5.4 SSE 15 17 8 9 1019.8 - 0.0
24/09:30pm 12.0 7.3 -1.5 39 5.5 SSE 13 15 7 8 1019.4 - 0.0
24/09:00pm 12.6 8.0 -1.3 38 5.7 SSE 13 15 7 8 1019.1 1018.9 0.0
24/08:30pm 12.7 8.0 -2.0 36 6.0 SSE 13 13 7 7 1018.8 - 0.0
24/08:00pm 13.3 8.5 -2.2 34 6.3 SSE 13 13 7 7 1018.5 - 0.0
24/07:30pm 14.3 9.9 -2.6 31 6.9 SSE 11 15 6 8 1018.1 - 0.0
24/07:00pm 16.3 11.4 -3.2 26 8.0 SSW 13 19 7 10 1017.8 - 0.0
24/06:30pm 17.2 12.7 -3.0 25 8.4 SSW 11 17 6 9 1017.5 - 0.0
24/06:00pm 19.1 13.9 -3.1 22 9.4 SSW 15 20 8 11 1017.2 1017.0 0.0
24/05:30pm 19.9 14.0 -2.4 22 9.6 S 19 22 10 12 1017.2 - 0.0
24/05:00pm 20.8 15.2 -3.0 20 10.2 SW 17 22 9 12 1017.0 - 0.0
24/04:30pm 20.6 15.0 -2.5 21 10.0 SSW 17 22 9 12 1016.9 - 0.0
24/04:00pm 20.9 15.5 -1.6 22 9.9 SSW 17 28 9 15 1016.9 - 0.0
24/03:30pm 21.1 15.3 -1.4 22 10.0 WSW 19 28 10 15 1016.9 - 0.0
24/03:00pm 20.8 15.7 -2.3 21 10.0 SW 15 24 8 13 1016.9 1016.7 0.0
24/02:30pm 20.3 14.5 -1.5 23 9.6 SW 19 33 10 18 1017.2 - 0.0
24/02:00pm 20.7 14.9 -1.2 23 9.7 WSW 19 24 10 13 1017.4 - 0.0
24/01:30pm 19.2 13.9 -0.7 26 8.8 SSW 17 20 9 11 1017.8 - 0.0
24/01:00pm 19.1 14.7 0.2 28 8.5 S 13 22 7 12 1018.2 - 0.0
24/12:30pm 18.7 13.9 0.3 29 8.3 SSE 15 20 8 11 1018.9 - 0.0
24/12:00pm 18.3 14.0 0.9 31 7.9 S 13 20 7 11 1019.3 1019.1 0.0
24/11:30am 17.4 12.0 1.4 34 7.3 SSE 19 24 10 13 1019.6 - 0.0
24/11:00am 17.1 11.7 2.3 37 6.9 SE 20 28 11 15 1019.7 - 0.0
24/10:30am 15.6 9.4 2.1 40 6.2 SSE 24 33 13 18 1019.6 - 0.0
24/10:00am 14.6 8.0 2.2 43 5.6 SSE 26 35 14 19 1019.6 - 0.0
24/09:30am 13.3 6.6 1.6 45 5.2 SSE 26 33 14 18 1019.6 - 0.0
24/09:00am 12.2 6.2 1.2 47 4.8 SSE 22 28 12 15 1019.2 1019.0 0.0
24/08:30am 10.7 4.6 0.7 50 4.2 SSE 22 32 12 17 1019.0 - 0.0
24/08:00am 9.8 3.7 0.4 52 3.9 SSE 22 28 12 15 1018.6 - 0.0
24/07:30am 9.4 3.3 0.3 53 3.8 SSE 22 28 12 15 1018.2 - 0.0
24/07:00am 9.9 3.8 0.5 52 3.9 SSE 22 30 12 16 1017.8 - 0.0
24/06:30am 10.0 4.3 0.3 51 4.0 SSE 20 26 11 14 1017.5 - 0.0
24/06:00am 9.6 3.8 0.0 51 3.9 SSE 20 26 11 14 1017.3 1017.1 0.0
24/05:30am 10.5 4.0 0.0 48 4.4 SSE 24 30 13 16 1017.0 - 0.0
24/05:00am 10.8 4.6 0.0 47 4.5 SSE 22 30 12 16 1017.0 - 0.0
24/04:30am 10.0 4.2 -0.2 49 4.2 SSE 20 26 11 14 1017.0 - 0.0
24/04:00am 10.7 4.9 -0.4 46 4.6 SSE 20 24 11 13 1016.9 - 0.0
24/03:30am 11.6 5.7 -0.5 43 5.0 SSE 20 28 11 15 1017.1 - 0.0
24/03:00am 11.8 6.1 -1.0 41 5.3 SSE 19 24 10 13 - - 0.0
24/02:30am 12.8 6.5 -1.1 38 5.8 SSE 22 32 12 17 1016.9 - 0.0
24/02:00am 13.0 7.2 -1.7 36 6.0 SSE 19 26 10 14 1016.9 - 0.0
24/01:30am 14.2 9.8 -2.2 32 6.7 SSW 11 19 6 10 1017.0 - 0.0
24/01:00am 13.9 9.0 -0.5 37 6.1 SW 15 22 8 12 1017.1 - 0.0
24/12:30am 13.6 9.6 0.3 40 5.7 SW 11 15 6 8 1017.0 - 0.0
24/12:00am 14.1 9.4 1.1 41 5.7 S 15 20 8 11 1017.1 1016.9 0.0
 
Date/Time
CST
Temp
°C
App
Temp
°C
Dew
Point
Rel
Hum
%
Delta-T
°C
Wind Press
QNH
hPa
Press
MSL
hPa
Rain
since 9 am
mm
Dir
 
Spd
km/h
Gust
km/h
Spd
kts
Gust
kts
23/11:30pm 13.9 10.1 1.9 44 5.4 S 11 17 6 9 1017.4 - 0.0
23/11:00pm 14.3 9.8 2.2 44 5.5 S 15 24 8 13 1017.3 - 0.0
23/10:30pm 15.1 10.6 2.3 42 5.8 S 15 19 8 10 1017.3 - 0.0
23/10:00pm 16.0 11.2 2.4 40 6.3 S 17 22 9 12 1017.3 - 0.0
23/09:30pm 15.0 11.4 3.2 45 5.5 S 11 13 6 7 1017.2 - 0.0
23/09:00pm 17.0 12.9 2.2 37 6.8 S 13 17 7 9 1016.9 1016.7 0.0
23/08:30pm 18.2 14.2 2.9 36 7.2 SSW 13 19 7 10 1016.6 - 0.0
23/08:00pm 17.2 13.4 3.8 41 6.4 SSW 13 17 7 9 1016.3 - 0.0
23/07:30pm 17.7 14.2 5.3 44 6.1 SSW 13 15 7 8 1015.8 - 0.0
23/07:00pm 18.2 15.1 5.4 43 6.4 SW 11 15 6 8 1015.6 - 0.0
23/06:30pm 20.2 16.2 5.1 37 7.6 SW 15 20 8 11 1015.2 - 0.0
23/06:00pm 22.1 17.5 5.5 34 8.5 WSW 19 24 10 13 1015.1 1014.9 0.0
23/05:30pm 22.8 17.6 5.7 33 8.8 SW 22 28 12 15 1015.0 - 0.0
23/05:00pm 23.3 19.7 6.6 34 8.8 SW 15 24 8 13 1015.0 - 0.0
23/04:30pm 23.5 19.5 6.7 34 8.9 WSW 17 24 9 13 1015.0 - 0.0
23/04:00pm 24.0 19.6 6.7 33 9.1 WSW 19 26 10 14 1015.1 - 0.0
23/03:30pm 23.9 19.5 6.7 33 9.1 W 19 24 10 13 1015.1 - 0.0
23/03:00pm 23.6 19.1 6.8 34 8.9 WSW 20 28 11 15 1015.2 1015.0 0.0
23/02:30pm 23.9 20.5 9.1 39 8.2 SW 17 28 9 15 1015.3 - 0.0
23/02:00pm 23.7 20.3 7.8 36 8.6 SW 15 24 8 13 1015.5 - 0.0
23/01:30pm 23.8 20.3 7.0 34 8.9 WSW 15 24 8 13 1015.9 - 0.0
23/01:00pm 23.0 20.1 6.7 35 8.6 SW 11 19 6 10 1016.6 - 0.0
23/12:30pm 22.4 19.8 6.2 35 8.4 SSW 9 17 5 9 1017.2 - 0.0
23/12:00pm 21.8 17.9 5.3 34 8.4 SW 15 22 8 12 1017.8 1017.6 0.0
23/11:30am 21.7 18.2 5.6 35 8.2 S 13 22 7 12 1018.3 - 0.0
23/11:00am 21.1 16.9 5.9 37 7.8 SSW 17 22 9 12 1018.8 - 0.0
23/10:30am 20.2 15.8 7.2 43 6.8 S 20 28 11 15 1018.9 - 0.0
23/10:00am 19.6 16.2 9.2 51 5.6 S 17 24 9 13 1018.9 - 0.0
23/09:30am 19.1 16.6 9.6 54 5.1 S 13 24 7 13 1018.6 - 0.0
23/09:00am 17.6 15.2 10.0 61 4.1 S 13 17 7 9 1018.6 1018.5 0.0
23/08:30am 17.0 14.6 9.9 63 3.8 SSE 13 20 7 11 1018.4 - 0.0
23/08:00am 15.2 13.4 9.3 68 3.1 SSW 9 11 5 6 1018.3 - 0.0
23/07:30am 16.1 13.4 9.1 63 3.7 WSW 13 17 7 9 1018.0 - 0.0
23/07:00am 17.3 14.3 9.2 59 4.3 WSW 15 19 8 10 1017.7 - 0.0
23/06:30am 17.0 14.4 9.2 60 4.1 WSW 13 15 7 8 1017.5 - 0.0
23/06:00am 17.4 15.2 9.3 59 4.3 SW 11 15 6 8 1016.9 1016.7 0.0
23/05:30am 16.4 14.9 9.1 62 3.9 SSW 7 11 4 6 1016.8 - 0.0
23/05:00am 17.3 16.2 8.4 56 4.7 ENE 4 6 2 3 1016.7 - 0.0
23/04:30am 17.7 15.5 8.0 53 5.1 S 9 11 5 6 1016.6 - 0.0
23/04:00am 18.4 16.2 7.8 50 5.5 SE 9 15 5 8 1016.7 - 0.0
23/03:30am 18.0 15.8 8.0 52 5.2 SSE 9 13 5 7 1016.5 - 0.0
23/03:00am 18.3 15.8 8.0 51 5.4 S 11 17 6 9 1016.6 1016.3 0.0
23/02:30am 18.6 15.9 7.4 48 5.8 S 11 15 6 8 1016.7 - 0.0
23/02:00am 19.0 16.2 7.1 46 6.1 SSE 11 13 6 7 1016.7 - 0.0
23/01:30am 19.4 16.3 7.2 45 6.3 SE 13 17 7 9 1016.9 - 0.0
23/01:00am 19.4 15.5 7.2 45 6.3 SSE 17 20 9 11 1017.0 - 0.0
23/12:30am 19.3 16.2 7.4 46 6.2 SSE 13 19 7 10 1017.2 - 0.0
23/12:00am 19.6 16.1 7.0 44 6.5 SSE 15 20 8 11 1017.3 1017.1 0.0
 
Date/Time
CST
Temp
°C
App
Temp
°C
Dew
Point
Rel
Hum
%
Delta-T
°C
Wind Press
QNH
hPa
Press
MSL
hPa
Rain
since 9 am
mm
Dir
 
Spd
km/h
Gust
km/h
Spd
kts
Gust
kts
22/11:30pm 19.7 16.1 6.8 43 6.7 SSE 15 19 8 10 1017.9 - 0.0

Other Formats:

Comma delimited format used in spreadsheet applications
http://www.bom.gov.au/fwo/IDD60801/IDD60801.94321.axf

JavaScript Object Notation format (JSON) in row-major order
http://www.bom.gov.au/fwo/IDD60801/IDD60801.94321.json